Time;durP1;ratioP1;P1;durP2;ratioP2;P2;SDS_P1;SDS_P2;PMS_P1;PMS_P2;Temp;Humidity;BMP_temperature;BMP_pressure;BME280_temperature;BME280_humidity;BME280_pressure;Samples;Min_cycle;Max_cycle;Signal;HPM_P1;HPM_P2
2023/08/11 00:01:58;;;;;;;5.20;3.60;;;;;;;18.85;72.86;100435.19;6181738;23;20041;-86
2023/08/11 00:04:25;;;;;;;6.20;3.42;;;;;;;18.87;72.92;100435.00;6132171;23;20075;-85
2023/08/11 00:06:52;;;;;;;6.28;3.40;;;;;;;18.89;73.03;100440.22;6207838;23;20024;-85
2023/08/11 00:09:19;;;;;;;7.95;3.60;;;;;;;18.83;73.39;100436.38;6182277;23;20100;-85
2023/08/11 00:11:46;;;;;;;7.68;3.45;;;;;;;18.86;73.02;100439.53;6181198;23;20433;-85
2023/08/11 00:14:13;;;;;;;7.47;3.95;;;;;;;18.81;73.38;100433.84;6132133;23;20024;-85
2023/08/11 00:16:40;;;;;;;4.40;3.30;;;;;;;18.80;73.25;100447.47;6182345;23;20024;-85
2023/08/11 00:19:07;;;;;;;3.92;3.33;;;;;;;18.80;73.28;100445.63;6205690;23;20016;-85
2023/08/11 00:21:34;;;;;;;8.45;3.33;;;;;;;18.81;73.43;100438.41;6156343;23;20024;-84
2023/08/11 00:24:01;;;;;;;4.97;3.75;;;;;;;18.80;73.20;100455.53;6181743;23;20025;-85
2023/08/11 00:26:30;;;;;;;6.82;3.42;;;;;;;18.83;72.75;100437.19;6156857;23;20019;-85
2023/08/11 00:28:57;;;;;;;5.30;3.70;;;;;;;18.86;72.27;100446.78;6181703;23;20052;-85
2023/08/11 00:31:24;;;;;;;7.05;3.50;;;;;;;18.86;72.85;100444.09;6181256;23;20017;-84
2023/08/11 00:33:51;;;;;;;9.70;3.85;;;;;;;18.80;72.96;100444.78;6181747;23;20078;-86
2023/08/11 00:36:19;;;;;;;5.20;3.92;;;;;;;18.78;72.91;100439.56;6180208;23;20027;-86
2023/08/11 00:38:47;;;;;;;4.90;3.45;;;;;;;18.77;72.77;100443.25;6181059;23;20032;-85
2023/08/11 00:41:16;;;;;;;6.97;3.70;;;;;;;18.81;72.69;100451.84;6156695;23;20012;-85
2023/08/11 00:43:43;;;;;;;3.88;3.08;;;;;;;18.75;72.68;100450.69;6206447;23;20054;-86
2023/08/11 00:46:12;;;;;;;4.57;3.30;;;;;;;18.77;72.25;100448.66;6180537;23;20024;-85
2023/08/11 00:48:40;;;;;;;7.30;3.80;;;;;;;18.71;72.32;100443.94;6156649;23;20507;-85
2023/08/11 00:51:09;;;;;;;4.30;3.90;;;;;;;18.71;71.77;100443.09;6156618;23;20087;-84
2023/08/11 00:53:36;;;;;;;4.35;3.50;;;;;;;18.72;71.78;100448.28;6156189;23;20059;-85
2023/08/11 00:56:03;;;;;;;7.38;3.50;;;;;;;18.69;71.88;100447.81;6155800;23;20021;-85
2023/08/11 00:58:30;;;;;;;5.85;3.50;;;;;;;18.64;72.14;100441.09;6181201;23;20062;-85
2023/08/11 01:00:58;;;;;;;3.50;3.20;;;;;;;18.64;72.33;100440.25;6206883;23;20024;-85
2023/08/11 01:03:25;;;;;;;6.97;3.67;;;;;;;18.67;72.08;100447.97;6207968;23;20032;-85
2023/08/11 01:06:18;;;;;;;8.45;3.47;;;;;;;18.52;72.39;100445.19;6180835;23;20107;-84
2023/08/11 01:09:08;;;;;;;7.75;4.20;;;;;;;18.38;72.88;100445.88;6180967;23;20031;-84
2023/08/11 01:12:05;;;;;;;5.57;3.58;;;;;;;18.41;72.79;100445.53;6152737;23;20047;-85
2023/08/11 01:14:52;;;;;;;7.50;3.80;;;;;;;18.39;72.45;100436.81;6156404;23;20290;-85
2023/08/11 01:17:20;;;;;;;4.40;3.13;;;;;;;18.53;72.25;100438.78;6204925;23;20028;-85
2023/08/11 01:19:47;;;;;;;9.45;3.88;;;;;;;18.50;72.24;100435.63;6155911;23;20024;-85
2023/08/11 01:22:15;;;;;;;9.02;3.67;;;;;;;18.47;72.35;100433.25;6156332;23;20020;-85
2023/08/11 01:24:44;;;;;;;5.07;3.95;;;;;;;18.44;72.35;100437.13;6156403;23;20020;-85
2023/08/11 01:27:12;;;;;;;6.30;3.53;;;;;;;18.43;72.64;100432.78;6207778;23;20082;-85
2023/08/11 01:29:39;;;;;;;8.23;3.78;;;;;;;18.41;72.54;100438.31;6180167;23;20028;-85
2023/08/11 01:32:06;;;;;;;4.72;3.47;;;;;;;18.38;72.28;100446.72;6156601;23;20016;-86
2023/08/11 01:34:35;;;;;;;6.85;3.20;;;;;;;18.39;72.37;100439.50;6132370;23;20055;-85
2023/08/11 01:37:03;;;;;;;5.78;3.72;;;;;;;18.37;72.42;100434.31;6180220;23;20448;-85
2023/08/11 01:39:31;;;;;;;5.55;3.58;;;;;;;18.38;72.44;100438.66;6181110;23;20083;-85
2023/08/11 01:41:58;;;;;;;5.30;3.42;;;;;;;18.36;72.40;100435.28;6206372;23;20031;-85
2023/08/11 01:44:25;;;;;;;6.38;3.53;;;;;;;18.35;72.31;100436.31;6180571;23;20021;-85
2023/08/11 01:46:55;;;;;;;6.05;3.47;;;;;;;18.35;72.27;100440.84;6205371;23;20491;-85
2023/08/11 01:49:24;;;;;;;7.00;3.70;;;;;;;18.32;72.44;100442.03;6155377;23;20124;-85
2023/08/11 01:51:51;;;;;;;8.35;3.67;;;;;;;18.30;72.49;100429.78;6205464;23;20036;-85
2023/08/11 01:54:19;;;;;;;6.32;4.03;;;;;;;18.32;72.55;100443.88;6205569;23;20384;-85
2023/08/11 01:56:47;;;;;;;4.60;3.17;;;;;;;18.30;72.22;100441.38;6180990;23;20380;-85
2023/08/11 01:59:15;;;;;;;6.60;4.07;;;;;;;18.26;72.27;100429.25;6180195;23;20031;-85
2023/08/11 02:01:42;;;;;;;8.38;3.63;;;;;;;18.27;72.50;100435.47;6180320;23;20391;-85
2023/08/11 02:04:09;;;;;;;4.82;3.60;;;;;;;18.27;72.33;100435.47;6179936;23;20520;-85
2023/08/11 02:06:39;;;;;;;3.58;3.20;;;;;;;18.20;71.96;100424.59;6155657;23;20047;-85
2023/08/11 02:09:09;;;;;;;4.90;3.53;;;;;;;18.22;72.40;100428.78;6155206;23;20453;-85
2023/08/11 02:11:37;;;;;;;6.70;3.42;;;;;;;18.18;72.22;100429.28;6180344;23;20044;-85
2023/08/11 02:14:08;;;;;;;6.13;3.33;;;;;;;18.11;72.47;100428.28;6205866;23;20036;-85
2023/08/11 02:16:35;;;;;;;6.55;3.78;;;;;;;18.16;72.16;100425.94;6156404;23;20021;-85
2023/08/11 02:19:02;;;;;;;3.90;3.25;;;;;;;18.16;72.07;100428.63;6155459;23;20079;-85
2023/08/11 02:21:29;;;;;;;5.90;3.55;;;;;;;18.15;71.94;100430.47;6179951;23;20021;-85
2023/08/11 02:23:56;;;;;;;7.07;3.90;;;;;;;18.11;72.23;100433.66;6180825;23;20476;-85
2023/08/11 02:26:23;;;;;;;5.38;3.35;;;;;;;18.11;72.24;100433.66;6179576;23;20032;-85
2023/08/11 02:28:50;;;;;;;5.13;3.60;;;;;;;18.11;72.12;100434.50;6179467;23;20391;-85
2023/08/11 02:31:17;;;;;;;5.07;3.80;;;;;;;18.04;72.12;100427.28;6155744;23;20017;-85
2023/08/11 02:33:45;;;;;;;7.18;3.88;;;;;;;18.06;72.10;100438.72;6156029;23;20048;-84
2023/08/11 02:36:13;;;;;;;5.78;3.38;;;;;;;18.00;72.17;100424.09;6155028;23;20024;-85
2023/08/11 02:38:41;;;;;;;9.70;3.60;;;;;;;18.00;72.10;100437.53;6180327;23;20023;-85
2023/08/11 02:41:08;;;;;;;4.53;3.47;;;;;;;17.97;71.86;100430.66;6179881;23;20099;-85
2023/08/11 02:43:36;;;;;;;6.68;3.90;;;;;;;17.95;72.29;100429.97;6154584;23;20103;-85
2023/08/11 02:46:07;;;;;;;5.78;3.83;;;;;;;18.00;72.13;100434.84;6155239;23;20043;-85
2023/08/11 02:48:34;;;;;;;5.43;3.05;;;;;;;17.98;72.22;100434.19;6180822;23;20349;-85
2023/08/11 02:51:02;;;;;;;6.00;3.92;;;;;;;17.92;72.02;100416.91;6156127;23;20028;-85
2023/08/11 02:53:30;;;;;;;5.97;3.60;;;;;;;17.93;71.96;100420.41;6204692;23;20448;-84
2023/08/11 02:55:56;;;;;;;6.43;3.92;;;;;;;17.97;72.08;100424.44;6155458;23;20033;-84
2023/08/11 02:58:23;;;;;;;4.07;3.67;;;;;;;17.95;72.30;100421.94;6155026;23;20047;-84
2023/08/11 03:00:50;;;;;;;6.10;3.42;;;;;;;17.93;72.32;100420.41;6179937;23;20016;-85
2023/08/11 03:03:17;;;;;;;5.22;3.50;;;;;;;17.89;72.30;100425.31;6154610;23;20039;-85
2023/08/11 03:05:45;;;;;;;8.43;3.60;;;;;;;17.90;72.31;100423.44;6152313;23;20054;-86
2023/08/11 03:08:12;;;;;;;6.15;3.72;;;;;;;17.90;72.35;100435.03;6179943;23;20066;-85
2023/08/11 03:10:39;;;;;;;7.25;4.05;;;;;;;17.84;72.42;100429.50;6203738;23;20021;-85
2023/08/11 03:13:23;;;;;;;10.15;4.00;;;;;;;17.83;72.19;100434.00;6182664;23;20043;-85
2023/08/11 03:15:52;;;;;;;7.25;3.90;;;;;;;17.85;72.21;100429.31;6204548;23;20025;-85
2023/08/11 03:18:19;;;;;;;6.50;3.55;;;;;;;17.84;72.15;100429.50;6155327;23;20028;-86
2023/08/11 03:20:46;;;;;;;5.78;3.80;;;;;;;17.79;72.33;100428.16;6155995;23;20013;-85
2023/08/11 03:23:13;;;;;;;5.60;3.92;;;;;;;17.81;71.93;100428.00;6153821;23;20032;-84
2023/08/11 03:25:40;;;;;;;4.88;3.85;;;;;;;17.77;72.03;100418.56;6178997;23;20020;-84
2023/08/11 03:28:08;;;;;;;5.57;3.90;;;;;;;17.76;71.89;100419.56;6179944;23;20082;-85
2023/08/11 03:30:37;;;;;;;6.82;3.63;;;;;;;17.73;72.07;100418.06;6205024;23;20032;-85
2023/08/11 03:33:04;;;;;;;6.45;3.95;;;;;;;17.70;72.00;100418.38;6153764;23;20131;-84
2023/08/11 03:35:42;;;;;;;7.95;4.00;;;;;;;17.67;71.85;100417.88;6181695;23;20027;-86
2023/08/11 03:38:09;;;;;;;4.53;3.13;;;;;;;17.66;71.93;100416.22;6180601;23;20088;-85
2023/08/11 03:40:36;;;;;;;5.28;3.60;;;;;;;17.68;71.93;100430.28;6155290;23;20107;-85
2023/08/11 03:43:03;;;;;;;9.00;4.30;;;;;;;17.60;72.16;100423.06;6178074;23;20032;-85
2023/08/11 03:45:32;;;;;;;6.28;3.40;;;;;;;17.58;72.24;100427.78;6180020;23;20024;-85
2023/08/11 03:47:59;;;;;;;5.78;3.50;;;;;;;17.60;72.03;100438.34;6204922;23;20086;-85
2023/08/11 03:50:26;;;;;;;6.93;3.65;;;;;;;17.54;72.33;100440.69;6179470;23;20108;-85
2023/08/11 03:52:53;;;;;;;5.95;3.72;;;;;;;17.54;72.06;100432.63;6179478;23;20024;-85
2023/08/11 03:55:22;;;;;;;5.95;3.63;;;;;;;17.53;71.80;100441.72;6180000;23;20058;-85
2023/08/11 03:57:51;;;;;;;6.05;3.42;;;;;;;17.51;71.83;100446.41;6179059;23;20347;-85
2023/08/11 04:00:23;;;;;;;4.65;3.22;;;;;;;17.48;71.96;100446.75;6131906;23;20029;-85
2023/08/11 04:03:03;;;;;;;5.55;3.45;;;;;;;17.45;71.69;100443.53;6184978;23;20056;-93
2023/08/11 04:05:30;;;;;;;9.45;3.70;;;;;;;17.46;71.56;100447.91;6134438;23;20024;-93
2023/08/11 04:07:57;;;;;;;8.82;4.15;;;;;;;17.45;71.73;100441.69;6133497;23;20024;-94
2023/08/11 04:10:24;;;;;;;7.78;3.67;;;;;;;17.45;71.62;100449.72;6134350;23;20016;-94
2023/08/11 04:12:51;;;;;;;10.70;3.80;;;;;;;17.44;71.96;100447.22;6133229;23;20113;-92
2023/08/11 04:15:18;;;;;;;5.90;3.65;;;;;;;17.42;71.76;100449.22;6181966;23;20027;-94
2023/08/11 04:17:45;;;;;;;4.32;3.80;;;;;;;17.44;71.93;100450.75;6133240;23;20036;-94
2023/08/11 04:20:13;;;;;;;6.57;3.90;;;;;;;17.43;71.58;100450.91;6155844;23;20348;-93
2023/08/11 04:22:41;;;;;;;6.93;3.78;;;;;;;17.49;71.84;100456.47;6180452;23;20087;-92
2023/08/11 04:25:10;;;;;;;4.82;3.60;;;;;;;17.47;71.77;100453.09;6130931;23;20079;-93
2023/08/11 04:27:41;;;;;;;8.05;3.88;;;;;;;17.44;71.57;100447.22;6157250;23;20380;-92
2023/08/11 04:30:10;;;;;;;5.72;3.90;;;;;;;17.45;71.51;100452.41;6133853;23;20013;-94
2023/08/11 04:32:38;;;;;;;6.22;3.80;;;;;;;17.46;71.03;100453.28;6134645;23;20028;-94
2023/08/11 04:35:07;;;;;;;5.80;4.00;;;;;;;17.48;70.98;100457.47;6132663;23;20314;-92
2023/08/11 04:37:36;;;;;;;6.65;4.03;;;;;;;17.47;71.02;100457.63;6159324;23;20370;-92
2023/08/11 04:40:10;;;;;;;5.15;3.80;;;;;;;17.48;71.12;100456.66;6132866;23;20031;-92
2023/08/11 04:42:40;;;;;;;11.25;4.18;;;;;;;17.48;71.45;100453.97;6135713;23;20017;-93
2023/08/11 04:45:09;;;;;;;5.82;4.07;;;;;;;17.55;71.12;100447.75;6133411;23;20095;-93
2023/08/11 04:47:37;;;;;;;6.85;4.10;;;;;;;17.60;71.04;100449.09;6133796;23;20024;-93
2023/08/11 04:50:11;;;;;;;4.80;4.00;;;;;;;17.60;70.69;100449.91;6133510;23;20044;-93
2023/08/11 04:52:38;;;;;;;6.95;3.90;;;;;;;17.63;70.46;100446.06;6134218;23;20396;-92
2023/08/11 04:55:07;;;;;;;5.22;3.80;;;;;;;17.62;70.46;100445.22;6133132;23;20472;-94
2023/08/11 04:57:35;;;;;;;7.13;4.47;;;;;;;17.62;70.41;100441.72;6133695;23;20021;-93
2023/08/11 05:00:06;;;;;;;6.32;4.18;;;;;;;17.69;70.24;100453.47;6133908;23;20028;-94
2023/08/11 05:02:33;;;;;;;5.40;4.28;;;;;;;17.70;70.11;100452.44;6133600;23;20020;-92
2023/08/11 05:05:00;;;;;;;5.95;4.18;;;;;;;17.68;70.29;100457.16;6133186;23;20087;-92
2023/08/11 05:07:27;;;;;;;6.07;3.80;;;;;;;17.71;70.57;100457.66;6133410;23;20034;-92
2023/08/11 05:09:54;;;;;;;7.03;4.07;;;;;;;17.74;70.18;100453.81;6135417;23;20024;-94
2023/08/11 05:12:21;;;;;;;4.90;4.25;;;;;;;17.79;70.41;100462.22;6158468;23;20031;-92
2023/08/11 05:14:48;;;;;;;6.30;4.47;;;;;;;17.81;70.19;100454.00;6135680;23;20021;-93
2023/08/11 05:17:15;;;;;;;8.65;4.07;;;;;;;17.83;70.19;100460.03;6133752;23;20052;-94
2023/08/11 05:19:42;;;;;;;8.45;4.30;;;;;;;17.85;70.34;100455.34;6158700;23;20048;-92
2023/08/11 05:22:10;;;;;;;8.15;4.30;;;;;;;17.83;70.05;100460.88;6158308;23;20024;-93
2023/08/11 05:24:36;;;;;;;5.53;4.40;;;;;;;17.81;70.10;100470.97;6159158;23;20013;-92
2023/08/11 05:27:04;;;;;;;4.13;3.30;;;;;;;17.82;70.33;100486.06;6157367;23;20016;-93
2023/08/11 05:29:31;;;;;;;7.45;4.43;;;;;;;17.83;70.23;100471.63;6133556;23;20040;-91
2023/08/11 05:31:58;;;;;;;5.70;4.25;;;;;;;17.88;70.09;100477.34;6133027;23;20031;-93
2023/08/11 05:34:25;;;;;;;6.55;4.10;;;;;;;17.91;70.44;100476.16;6131232;23;20484;-91
2023/08/11 05:36:52;;;;;;;9.15;4.38;;;;;;;17.92;70.48;100472.47;6155327;23;20058;-92
2023/08/11 05:39:21;;;;;;;6.30;4.00;;;;;;;17.93;70.44;100471.47;6131468;23;20032;-91
2023/08/11 05:41:48;;;;;;;8.02;4.85;;;;;;;17.97;70.44;100470.97;6156035;23;20016;-92
2023/08/11 05:44:15;;;;;;;5.30;4.15;;;;;;;18.02;70.29;100480.38;6130752;23;20086;-92
2023/08/11 05:46:42;;;;;;;9.80;4.10;;;;;;;17.99;70.09;100471.66;6155354;23;20088;-92
2023/08/11 05:49:08;;;;;;;8.70;4.10;;;;;;;17.97;70.11;100467.44;6155946;23;20021;-92
2023/08/11 05:51:35;;;;;;;6.97;4.75;;;;;;;18.00;70.48;100475.16;6131491;23;20090;-91
2023/08/11 05:54:02;;;;;;;8.10;4.20;;;;;;;18.00;70.36;100473.31;6131314;23;20324;-92
2023/08/11 05:56:29;;;;;;;8.55;4.20;;;;;;;18.03;70.40;100474.00;6155623;23;20024;-92
2023/08/11 05:58:56;;;;;;;7.30;4.00;;;;;;;18.07;70.35;100465.44;6131301;23;20448;-92
2023/08/11 06:01:23;;;;;;;7.78;4.15;;;;;;;18.12;70.75;100473.00;6131741;23;20035;-91
2023/08/11 06:03:50;;;;;;;7.15;4.28;;;;;;;18.11;70.54;100469.44;6156498;23;20040;-92
2023/08/11 06:06:17;;;;;;;8.38;4.65;;;;;;;18.15;71.10;100473.47;6156480;23;20020;-91
2023/08/11 06:08:45;;;;;;;11.57;4.93;;;;;;;18.14;71.03;100468.25;6156049;23;20017;-93
2023/08/11 06:11:12;;;;;;;12.90;5.10;;;;;;;18.11;70.91;100463.22;6132169;23;20078;-92
2023/08/11 06:13:39;;;;;;;6.50;4.25;;;;;;;18.13;70.91;100458.53;6131949;23;20095;-93
2023/08/11 06:16:06;;;;;;;8.93;4.68;;;;;;;18.20;71.22;100470.28;6156089;23;20024;-93
2023/08/11 06:18:33;;;;;;;9.93;5.35;;;;;;;18.22;70.84;100469.09;6156217;23;20087;-93
2023/08/11 06:21:03;;;;;;;9.93;5.65;;;;;;;18.23;70.98;100469.94;6131895;23;20021;-92
2023/08/11 06:23:31;;;;;;;11.70;6.18;;;;;;;18.25;71.00;100467.94;6131913;23;20459;-91
2023/08/11 06:25:58;;;;;;;12.32;8.20;;;;;;;18.28;71.34;100470.25;6131577;23;20344;-92
2023/08/11 06:28:25;;;;;;;12.82;6.63;;;;;;;18.27;71.24;100463.22;6155718;23;20078;-93
2023/08/11 06:30:52;;;;;;;11.38;5.57;;;;;;;18.34;70.85;100466.91;6132815;23;20024;-92
2023/08/11 06:33:21;;;;;;;9.70;5.93;;;;;;;18.34;70.77;100471.44;6132093;23;20099;-92
2023/08/11 06:35:48;;;;;;;16.85;8.57;;;;;;;18.34;70.28;100466.06;6131383;23;20078;-93
2023/08/11 06:38:15;;;;;;;18.13;9.90;;;;;;;18.36;70.70;100461.34;6131421;23;20030;-92
2023/08/11 06:40:44;;;;;;;12.98;7.53;;;;;;;18.40;70.57;100470.75;6155450;23;20437;-91
2023/08/11 06:43:11;;;;;;;15.93;7.78;;;;;;;18.44;70.54;100467.56;6132070;23;20028;-92
2023/08/11 06:45:37;;;;;;;16.50;7.95;;;;;;;18.51;70.90;100472.25;6131057;23;20051;-92
2023/08/11 06:48:05;;;;;;;20.58;10.25;;;;;;;18.55;71.36;100466.34;6131198;23;20020;-92
2023/08/11 06:50:32;;;;;;;14.82;8.35;;;;;;;18.59;71.29;100464.16;6131151;23;20024;-92
2023/08/11 06:52:59;;;;;;;20.58;8.35;;;;;;;18.58;71.14;100463.31;6130922;23;20020;-92
2023/08/11 06:55:26;;;;;;;16.27;8.40;;;;;;;18.63;71.60;100469.00;6155400;23;20440;-92
2023/08/11 06:57:53;;;;;;;14.73;9.23;;;;;;;18.61;71.32;100464.81;6130396;23;20017;-93
2023/08/11 07:00:20;;;;;;;15.52;8.30;;;;;;;18.65;71.36;100475.06;6129908;23;20488;-92
2023/08/11 07:02:47;;;;;;;12.18;7.30;;;;;;;18.68;71.47;100471.19;6156175;23;20016;-92
2023/08/11 07:05:15;;;;;;;15.30;6.97;;;;;;;18.70;71.36;100471.88;6130579;23;20021;-92
2023/08/11 07:07:42;;;;;;;10.82;6.85;;;;;;;18.78;71.09;100471.88;6131035;23;20024;-93
2023/08/11 07:10:09;;;;;;;10.77;6.47;;;;;;;18.80;70.80;100474.38;6155369;23;20066;-92
2023/08/11 07:12:36;;;;;;;13.70;6.75;;;;;;;18.85;71.05;100478.25;6130622;23;20020;-93
2023/08/11 07:15:03;;;;;;;7.40;5.38;;;;;;;18.86;70.78;100474.53;6155814;23;20024;-93
2023/08/11 07:17:30;;;;;;;11.10;5.63;;;;;;;18.93;70.71;100476.50;6131975;23;20017;-93
2023/08/11 07:19:57;;;;;;;7.72;5.07;;;;;;;18.92;71.05;100466.75;6131472;23;20029;-93
2023/08/11 07:22:24;;;;;;;5.95;4.20;;;;;;;18.97;70.53;100470.59;6155901;23;20717;-94
2023/08/11 07:24:50;;;;;;;5.45;4.25;;;;;;;19.05;71.21;100470.56;6132694;23;20028;-91
2023/08/11 07:27:17;;;;;;;8.77;4.22;;;;;;;19.06;70.95;100474.13;6131922;23;20079;-93
2023/08/11 07:29:45;;;;;;;8.82;4.43;;;;;;;19.11;71.40;100470.88;6132039;23;20502;-92
2023/08/11 07:32:12;;;;;;;8.70;4.45;;;;;;;19.14;71.43;100466.00;6132380;23;20051;-94
2023/08/11 07:34:40;;;;;;;4.90;4.18;;;;;;;19.19;70.93;100466.31;6159874;23;20021;-93
2023/08/11 07:37:07;;;;;;;6.28;4.40;;;;;;;19.20;70.50;100472.53;6132394;23;20083;-89
2023/08/11 07:39:35;;;;;;;5.70;4.00;;;;;;;19.21;70.28;100475.03;6153548;23;20031;-90
2023/08/11 07:42:03;;;;;;;4.93;3.55;;;;;;;19.26;70.99;100472.66;6128244;23;20101;-90
2023/08/11 07:44:31;;;;;;;4.80;3.60;;;;;;;19.30;70.21;100471.28;6152619;23;20526;-90
2023/08/11 07:46:57;;;;;;;5.93;4.75;;;;;;;19.35;70.33;100472.59;6153447;23;20083;-91
2023/08/11 07:49:24;;;;;;;5.60;3.90;;;;;;;19.39;70.29;100479.34;6152128;23;20047;-91
2023/08/11 07:51:51;;;;;;;7.05;3.90;;;;;;;19.43;70.53;100475.25;6154488;23;20040;-91
2023/08/11 07:54:20;;;;;;;5.03;4.43;;;;;;;19.44;70.76;100480.47;6117435;23;20021;-92
2023/08/11 07:56:47;;;;;;;7.72;4.00;;;;;;;19.47;71.09;100480.09;6119452;23;20017;-93
2023/08/11 07:59:15;;;;;;;4.85;3.75;;;;;;;19.49;71.74;100472.69;6154062;23;20048;-87
2023/08/11 08:01:42;;;;;;;4.93;4.10;;;;;;;19.55;71.74;100481.91;6150381;23;20020;-89
2023/08/11 08:04:10;;;;;;;5.75;3.60;;;;;;;19.55;71.49;100481.91;6128720;23;20126;-90
2023/08/11 08:06:45;;;;;;;7.18;4.03;;;;;;;19.60;71.84;100484.91;6153439;23;20020;-89
2023/08/11 08:09:13;;;;;;;4.30;3.90;;;;;;;19.59;71.62;100485.06;6153827;23;20028;-89
2023/08/11 08:11:45;;;;;;;4.32;3.38;;;;;;;19.65;70.84;100487.91;6130120;23;20349;-89
2023/08/11 08:14:12;;;;;;;4.85;3.38;;;;;;;19.66;71.38;100480.66;6154489;23;20029;-89
2023/08/11 08:16:46;;;;;;;5.55;3.28;;;;;;;19.75;71.56;100485.00;6129538;23;20021;-91
2023/08/11 08:19:18;;;;;;;4.30;3.65;;;;;;;19.81;71.97;100483.44;6202685;23;20016;-90
2023/08/11 08:21:46;;;;;;;7.97;4.40;;;;;;;19.86;71.78;100492.66;6131732;23;20024;-88
2023/08/11 08:24:16;;;;;;;9.55;3.60;;;;;;;19.93;71.64;100488.22;6157946;23;20016;-92
2023/08/11 08:26:43;;;;;;;6.90;3.63;;;;;;;19.97;70.62;100495.94;6155283;23;20020;-90
2023/08/11 08:29:11;;;;;;;4.30;3.42;;;;;;;19.97;71.09;100486.00;6129051;23;20028;-90
2023/08/11 08:31:37;;;;;;;5.15;3.60;;;;;;;20.07;71.14;100488.44;6131493;23;20020;-91
2023/08/11 08:34:04;;;;;;;5.22;3.60;;;;;;;20.08;70.76;100484.75;6138446;23;20016;-90
2023/08/11 08:36:31;;;;;;;4.63;3.55;;;;;;;20.13;70.81;100485.88;6183294;23;20024;-93
2023/08/11 08:38:58;;;;;;;5.07;3.60;;;;;;;20.20;71.20;100493.22;6132603;23;20504;-93
2023/08/11 08:41:28;;;;;;;6.13;3.38;;;;;;;20.21;70.56;100492.22;6157341;23;20656;-94
2023/08/11 08:43:55;;;;;;;4.57;3.25;;;;;;;20.23;69.66;100491.03;6133400;23;20032;-95
2023/08/11 08:46:27;;;;;;;7.45;3.80;;;;;;;20.25;69.88;100485.44;6132596;23;20428;-92
2023/08/11 08:49:11;;;;;;;5.95;3.80;;;;;;;20.27;69.59;100483.38;6157324;23;20024;-93
2023/08/11 08:51:39;;;;;;;3.22;2.92;;;;;;;20.30;68.94;100483.00;6157513;23;20075;-92
2023/08/11 08:54:09;;;;;;;4.63;3.33;;;;;;;20.29;68.45;100476.78;6132918;23;20025;-94
2023/08/11 08:56:40;;;;;;;5.20;3.42;;;;;;;20.33;68.00;100474.59;6135005;23;20099;-93
2023/08/11 08:59:07;;;;;;;6.00;3.63;;;;;;;20.41;68.41;100479.88;6158157;23;20024;-91
2023/08/11 09:01:35;;;;;;;5.53;3.67;;;;;;;20.45;68.25;100475.78;6157921;23;20024;-94
2023/08/11 09:04:03;;;;;;;5.30;3.65;;;;;;;20.45;67.97;100470.38;6156598;23;20096;-94
2023/08/11 09:06:38;;;;;;;5.25;3.08;;;;;;;20.48;68.13;100470.03;6158513;23;20028;-88
2023/08/11 09:09:06;;;;;;;6.60;3.83;;;;;;;20.53;68.50;100467.63;6179808;23;20024;-87
2023/08/11 09:11:33;;;;;;;5.32;3.25;;;;;;;20.56;68.13;100464.59;6156079;23;20013;-87
2023/08/11 09:14:08;;;;;;;3.97;3.05;;;;;;;20.58;68.02;100461.69;6155129;23;20079;-88
2023/08/11 09:16:36;;;;;;;4.82;2.90;;;;;;;20.62;68.19;100452.19;6181007;23;20096;-87
2023/08/11 09:19:04;;;;;;;5.30;3.25;;;;;;;20.65;67.23;100459.91;6156315;23;20025;-87
2023/08/11 09:21:31;;;;;;;5.28;3.17;;;;;;;20.67;67.29;100457.03;6180232;23;20070;-87
2023/08/11 09:23:58;;;;;;;7.78;3.22;;;;;;;20.70;67.28;100456.66;6206784;23;20013;-91
2023/08/11 09:26:25;;;;;;;3.80;2.95;;;;;;;20.73;66.30;100453.59;6110966;23;20120;-88
2023/08/11 09:28:52;;;;;;;3.13;2.28;;;;;;;20.75;65.34;100459.66;6205246;23;20023;-89
2023/08/11 09:31:28;;;;;;;9.02;3.10;;;;;;;20.78;65.35;100452.00;6131752;23;20028;-87
2023/08/11 09:33:54;;;;;;;4.45;2.90;;;;;;;20.85;65.94;100449.41;6181402;23;20437;-88
2023/08/11 09:36:21;;;;;;;5.60;3.47;;;;;;;20.91;65.78;100451.34;6154556;23;20074;-88
2023/08/11 09:38:49;;;;;;;3.28;2.75;;;;;;;20.95;65.44;100451.81;6156889;23;20441;-90
2023/08/11 09:41:16;;;;;;;5.47;3.00;;;;;;;20.97;65.45;100455.16;6180840;23;20051;-92
2023/08/11 09:43:49;;;;;;;6.18;3.10;;;;;;;20.99;65.62;100453.13;6132188;23;20314;-92
2023/08/11 09:46:17;;;;;;;4.65;2.97;;;;;;;21.02;66.36;100445.47;6157071;23;20078;-92
2023/08/11 09:48:54;;;;;;;4.75;2.65;;;;;;;21.06;65.60;100450.47;6158679;23;20031;-93
2023/08/11 09:51:21;;;;;;;3.85;3.05;;;;;;;21.07;64.97;100442.19;6133290;23;20017;-91
2023/08/11 09:53:49;;;;;;;5.78;3.20;;;;;;;21.09;65.12;100434.75;6155784;23;20051;-92
2023/08/11 09:56:16;;;;;;;5.65;3.13;;;;;;;21.13;64.69;100440.59;6129403;23;20095;-89
2023/08/11 09:58:45;;;;;;;3.50;3.00;;;;;;;21.14;64.44;100442.25;6155127;23;20071;-89
2023/08/11 10:01:12;;;;;;;4.47;2.97;;;;;;;21.15;64.01;100447.50;6155318;23;20457;-88
2023/08/11 10:03:50;;;;;;;4.38;3.13;;;;;;;21.15;64.27;100442.09;6133023;23;20404;-88
2023/08/11 10:06:20;;;;;;;6.07;3.05;;;;;;;21.19;63.90;100434.44;6155321;23;20349;-88
2023/08/11 10:08:49;;;;;;;6.38;2.95;;;;;;;21.20;64.43;100436.94;6178899;23;20428;-89
2023/08/11 10:11:18;;;;;;;5.68;2.78;;;;;;;21.24;64.28;100442.78;6154579;23;20119;-88
2023/08/11 10:13:46;;;;;;;6.07;2.90;;;;;;;21.26;63.22;100435.34;6155373;23;20028;-89
2023/08/11 10:16:14;;;;;;;3.42;2.50;;;;;;;21.30;62.57;100438.53;6155201;23;20028;-91
2023/08/11 10:18:42;;;;;;;4.65;2.65;;;;;;;21.33;64.15;100430.84;6154697;23;20095;-88
2023/08/11 10:21:09;;;;;;;6.15;2.80;;;;;;;21.38;64.40;100438.41;6154053;23;20035;-91
2023/08/11 10:23:36;;;;;;;4.45;2.92;;;;;;;21.42;63.96;100437.84;6130381;23;20023;-91
2023/08/11 10:26:03;;;;;;;5.18;2.70;;;;;;;21.46;64.00;100436.44;6179695;23;20021;-90
2023/08/11 10:28:30;;;;;;;4.28;2.80;;;;;;;21.50;64.01;100434.19;6153974;23;20012;-91
2023/08/11 10:30:58;;;;;;;4.63;2.75;;;;;;;21.53;63.96;100433.81;6179749;23;20020;-92
2023/08/11 10:33:29;;;;;;;5.28;2.63;;;;;;;21.53;64.02;100425.69;6154680;23;20742;-91
2023/08/11 10:35:58;;;;;;;2.90;2.05;;;;;;;21.57;63.05;100428.84;6181276;23;20107;-93
2023/08/11 10:38:27;;;;;;;6.60;2.83;;;;;;;21.59;63.12;100427.63;6136982;23;20072;-93
2023/08/11 10:41:05;;;;;;;2.50;2.10;;;;;;;21.56;62.26;100430.72;6148008;23;20029;-93
2023/08/11 10:43:42;;;;;;;3.42;2.38;;;;;;;21.62;62.81;100429.91;6161509;23;20037;-94
2023/08/11 10:46:30;;;;;;;3.67;2.35;;;;;;;21.59;62.91;100430.31;6136520;23;20021;-93
2023/08/11 10:49:21;;;;;;;4.20;2.53;;;;;;;21.60;63.28;100428.44;6157273;23;20031;-94
2023/08/11 10:51:48;;;;;;;2.75;2.40;;;;;;;21.64;63.04;100425.16;6135736;23;20020;-93
2023/08/11 10:54:23;;;;;;;2.63;2.33;;;;;;;21.70;62.45;100426.25;6136001;23;20021;-92
2023/08/11 10:56:51;;;;;;;2.80;2.22;;;;;;;21.76;61.87;100424.66;6133307;23;20020;-93
2023/08/11 10:59:29;;;;;;;5.43;2.40;;;;;;;21.73;60.75;100422.31;6156297;23;20357;-93
2023/08/11 11:01:57;;;;;;;4.30;2.28;;;;;;;21.80;61.21;100429.47;6156084;23;20437;-92
2023/08/11 11:04:29;;;;;;;2.97;2.42;;;;;;;21.81;61.46;100425.75;6133822;23;20016;-91
2023/08/11 11:06:57;;;;;;;2.80;2.37;;;;;;;21.81;61.81;100425.75;6183448;23;20055;-93
2023/08/11 11:09:25;;;;;;;3.63;2.75;;;;;;;21.83;61.83;100420.97;6156458;23;20304;-92
2023/08/11 11:11:52;;;;;;;1.98;1.77;;;;;;;21.83;61.18;100418.28;6132315;23;20020;-90
2023/08/11 11:14:19;;;;;;;3.90;1.92;;;;;;;21.85;60.48;100418.94;6152180;23;20025;-87
2023/08/11 11:16:46;;;;;;;3.35;2.20;;;;;;;21.91;61.51;100427.28;6178052;23;20316;-88
2023/08/11 11:19:13;;;;;;;6.80;2.40;;;;;;;21.94;60.40;100418.78;6201871;23;20107;-88
2023/08/11 11:21:40;;;;;;;5.28;2.50;;;;;;;21.95;59.95;100415.88;6152855;23;20033;-88
2023/08/11 11:24:08;;;;;;;4.95;2.25;;;;;;;22.00;60.03;100410.69;6128797;23;20023;-89
2023/08/11 11:26:35;;;;;;;3.92;2.38;;;;;;;22.00;59.76;100405.28;6154446;23;20025;-90
2023/08/11 11:29:04;;;;;;;2.42;2.20;;;;;;;22.07;60.40;100406.19;6177948;23;20028;-90
2023/08/11 11:31:34;;;;;;;2.75;2.40;;;;;;;22.11;60.02;100404.78;6155796;23;20035;-91